Cape Express — HO5337 — position and weather

sailwx.info

Track history (hours):
 
Tides and Currents Weather Stations Pressure Air Temp Water Temp Dewpoint Dewpoint Depression Visibility Wind Speed Wind Dir Waves Ship Positions

Cape Express

Last reported at 2014-Oct-30 07:25 UTC. Time now 2014-Nov-01 10:37 UTC.
Position N 26°15' W 079°28'.

Length 29 m; draft 2.2 m.

Type: Cargo ship. MMSI: 370269000.

Date/timePositionNaut miles runAvg speedWind from/ knotsBaromVisibWave heightAir tempDewpointWater temp
2014-Oct-30 07:25N 26°15' W 079°28'7 7.0
2014-Oct-30 06:22N 26°15' W 079°36'7 8.2
2014-Oct-30 05:33N 26°13' W 079°43'8 8.2
2014-Oct-30 04:33N 26°10' W 079°52'9 8.5
2014-Oct-30 03:33N 26°07' W 080°01'6 6.4
2014-Oct-30 02:33N 26°04' W 080°07'1 0.9
2014-Oct-30 01:33N 26°04' W 080°08'0 0.0
2014-Oct-30 00:33N 26°04' W 080°08'0 0.0
2014-Oct-29 23:33N 26°04' W 080°08'0 0.0
2014-Oct-29 22:33N 26°04' W 080°08'1 0.6
2014-Oct-29 21:33N 26°04' W 080°07'5 5.0
2014-Oct-29 20:33N 26°04' W 080°02'1010.3
2014-Oct-29 19:33N 26°03' W 079°50'10 9.7
2014-Oct-29 18:33N 26°03' W 079°39'14 1.1
2014-Oct-29 06:04N 26°15' W 079°33'510.1
2014-Oct-29 05:33N 26°14' W 079°38'1010.3
2014-Oct-29 04:33N 26°11' W 079°49'1010.5
2014-Oct-29 03:33N 26°07' W 080°00'7 7.3
2014-Oct-29 02:33N 26°04' W 080°08'0 0.3
2014-Oct-29 01:33N 26°04' W 080°08'0 0.0
2014-Oct-29 00:33N 26°04' W 080°08'0 0.0
2014-Oct-28 23:33N 26°04' W 080°08'0 0.0
2014-Oct-28 22:33N 26°04' W 080°08'1 0.7
2014-Oct-28 21:33N 26°04' W 080°07'6 6.4
2014-Oct-28 20:33N 26°04' W 079°60'1010.0
2014-Oct-28 19:33N 26°04' W 079°49'10 9.7
2014-Oct-28 18:33N 26°03' W 079°38'12 0.8
2014-Oct-28 04:11N 26°15' W 079°37'710.9
2014-Oct-28 03:33N 26°13' W 079°44'1110.7
2014-Oct-28 02:33N 26°09' W 079°56'1010.2
2014-Oct-28 01:33N 26°06' W 080°06'2 2.4
2014-Oct-28 00:33N 26°04' W 080°08'0 0.0
2014-Oct-27 23:33N 26°04' W 080°08'2 1.9
2014-Oct-27 22:33N 26°05' W 080°07'1010.2
2014-Oct-27 21:33N 26°01' W 079°57'1211.7
2014-Oct-27 20:33N 25°56' W 079°45'18 1.6
2014-Oct-27 09:04N 25°46' W 079°28'11 7.4
2014-Oct-27 07:33N 25°50' W 079°39'7 7.3
2014-Oct-27 06:33N 25°53' W 079°47'8 7.5
2014-Oct-27 05:33N 25°57' W 079°54'8 8.5
2014-Oct-27 04:33N 26°02' W 080°01'5 5.2
2014-Oct-27 03:33N 26°04' W 080°07'1 0.9
2014-Oct-27 02:33N 26°04' W 080°08'0 0.0
2014-Oct-27 01:33N 26°04' W 080°08'0 0.0
2014-Oct-27 00:33N 26°04' W 080°08'0 0.0
2014-Oct-26 23:33N 26°04' W 080°08'0 0.0
2014-Oct-26 22:33N 26°04' W 080°08'4 3.6
2014-Oct-26 21:33N 26°04' W 080°04'1110.6
2014-Oct-26 20:33N 26°02' W 079°52'1110.6
2014-Oct-26 19:33N 25°59' W 079°41'14 0.3
2014-Oct-24 23:21N 25°52' W 079°28'5 6.5
2014-Oct-24 22:33N 25°53' W 079°33'6 6.2
2014-Oct-24 21:33N 25°55' W 079°39'6 5.6
2014-Oct-24 20:33N 25°58' W 079°45'6 5.9
2014-Oct-24 19:33N 26°01' W 079°51'6 5.7
2014-Oct-24 18:33N 26°03' W 079°56'6 5.6
2014-Oct-24 17:33N 26°05' W 080°02'5 4.5
2014-Oct-24 16:32N 26°04' W 080°07'1 0.6
2014-Oct-24 15:33N 26°04' W 080°08'0 0.0
2014-Oct-24 14:33N 26°04' W 080°08'0 0.0
2014-Oct-24 13:33N 26°04' W 080°08'0 0.0
2014-Oct-24 12:33N 26°04' W 080°08'0 0.1
2014-Oct-24 11:33N 26°04' W 080°08'5 4.9
2014-Oct-24 10:33N 26°05' W 080°03'10 9.6
2014-Oct-24 09:33N 25°60' W 079°53'1110.8
2014-Oct-24 08:33N 25°54' W 079°43'9 0.4
2014-Oct-23 08:16N 25°47' W 079°36'6 8.4
2014-Oct-23 07:33N 25°50' W 079°42'8 7.6
2014-Oct-23 06:33N 25°54' W 079°49'7 6.7
2014-Oct-23 05:33N 25°59' W 079°55'7 6.7
2014-Oct-23 04:33N 26°03' W 080°01'5 5.4
2014-Oct-23 03:33N 26°04' W 080°07'1 0.9
2014-Oct-23 02:33N 26°04' W 080°08'0 0.0
2014-Oct-23 01:33N 26°04' W 080°08'0 0.0
2014-Oct-23 00:33N 26°04' W 080°08'0 0.0
2014-Oct-22 23:33N 26°04' W 080°08'0 0.1
2014-Oct-22 22:33N 26°04' W 080°08'2 2.5
2014-Oct-22 21:33N 26°05' W 080°05'6 6.1
2014-Oct-22 20:33N 26°04' W 079°59'1111.0
2014-Oct-22 19:33N 25°59' W 079°48'1111.1
2014-Oct-22 18:33N 25°56' W 079°36'  
Track history (hours):
 
Tides and Currents Weather Stations Pressure Air Temp Water Temp Dewpoint Dewpoint Depression Visibility Wind Speed Wind Dir Waves Ship Positions

Cape Express

Last reported at 2014-Oct-30 07:25 UTC. Time now 2014-Nov-01 10:37 UTC.
Position N 26°15' W 079°28'.

Length 29 m; draft 2.2 m.

Type: Cargo ship. MMSI: 370269000.

Date/timePositionNaut miles runAvg speedWind from/ knotsBaromVisibWave heightAir tempDewpointWater temp
2014-Oct-30 07:25N 26°15' W 079°28'7 7.0
2014-Oct-30 06:22N 26°15' W 079°36'7 8.2
2014-Oct-30 05:33N 26°13' W 079°43'8 8.2
2014-Oct-30 04:33N 26°10' W 079°52'9 8.5
2014-Oct-30 03:33N 26°07' W 080°01'6 6.4
2014-Oct-30 02:33N 26°04' W 080°07'1 0.9
2014-Oct-30 01:33N 26°04' W 080°08'0 0.0
2014-Oct-30 00:33N 26°04' W 080°08'0 0.0
2014-Oct-29 23:33N 26°04' W 080°08'0 0.0
2014-Oct-29 22:33N 26°04' W 080°08'1 0.6
2014-Oct-29 21:33N 26°04' W 080°07'5 5.0
2014-Oct-29 20:33N 26°04' W 080°02'1010.3
2014-Oct-29 19:33N 26°03' W 079°50'10 9.7
2014-Oct-29 18:33N 26°03' W 079°39'14 1.1
2014-Oct-29 06:04N 26°15' W 079°33'510.1
2014-Oct-29 05:33N 26°14' W 079°38'1010.3
2014-Oct-29 04:33N 26°11' W 079°49'1010.5
2014-Oct-29 03:33N 26°07' W 080°00'7 7.3
2014-Oct-29 02:33N 26°04' W 080°08'0 0.3
2014-Oct-29 01:33N 26°04' W 080°08'0 0.0
2014-Oct-29 00:33N 26°04' W 080°08'0 0.0
2014-Oct-28 23:33N 26°04' W 080°08'0 0.0
2014-Oct-28 22:33N 26°04' W 080°08'1 0.7
2014-Oct-28 21:33N 26°04' W 080°07'6 6.4
2014-Oct-28 20:33N 26°04' W 079°60'1010.0
2014-Oct-28 19:33N 26°04' W 079°49'10 9.7
2014-Oct-28 18:33N 26°03' W 079°38'12 0.8
2014-Oct-28 04:11N 26°15' W 079°37'710.9
2014-Oct-28 03:33N 26°13' W 079°44'1110.7
2014-Oct-28 02:33N 26°09' W 079°56'1010.2
2014-Oct-28 01:33N 26°06' W 080°06'2 2.4
2014-Oct-28 00:33N 26°04' W 080°08'0 0.0
2014-Oct-27 23:33N 26°04' W 080°08'2 1.9
2014-Oct-27 22:33N 26°05' W 080°07'1010.2
2014-Oct-27 21:33N 26°01' W 079°57'1211.7
2014-Oct-27 20:33N 25°56' W 079°45'18 1.6
2014-Oct-27 09:04N 25°46' W 079°28'11 7.4
2014-Oct-27 07:33N 25°50' W 079°39'7 7.3
2014-Oct-27 06:33N 25°53' W 079°47'8 7.5
2014-Oct-27 05:33N 25°57' W 079°54'8 8.5
2014-Oct-27 04:33N 26°02' W 080°01'5 5.2
2014-Oct-27 03:33N 26°04' W 080°07'1 0.9
2014-Oct-27 02:33N 26°04' W 080°08'0 0.0
2014-Oct-27 01:33N 26°04' W 080°08'0 0.0
2014-Oct-27 00:33N 26°04' W 080°08'0 0.0
2014-Oct-26 23:33N 26°04' W 080°08'0 0.0
2014-Oct-26 22:33N 26°04' W 080°08'4 3.6
2014-Oct-26 21:33N 26°04' W 080°04'1110.6
2014-Oct-26 20:33N 26°02' W 079°52'1110.6
2014-Oct-26 19:33N 25°59' W 079°41'14 0.3
2014-Oct-24 23:21N 25°52' W 079°28'5 6.5
2014-Oct-24 22:33N 25°53' W 079°33'6 6.2
2014-Oct-24 21:33N 25°55' W 079°39'6 5.6
2014-Oct-24 20:33N 25°58' W 079°45'6 5.9
2014-Oct-24 19:33N 26°01' W 079°51'6 5.7
2014-Oct-24 18:33N 26°03' W 079°56'6 5.6
2014-Oct-24 17:33N 26°05' W 080°02'5 4.5
2014-Oct-24 16:32N 26°04' W 080°07'1 0.6
2014-Oct-24 15:33N 26°04' W 080°08'0 0.0
2014-Oct-24 14:33N 26°04' W 080°08'0 0.0
2014-Oct-24 13:33N 26°04' W 080°08'0 0.0
2014-Oct-24 12:33N 26°04' W 080°08'0 0.1
2014-Oct-24 11:33N 26°04' W 080°08'5 4.9
2014-Oct-24 10:33N 26°05' W 080°03'10 9.6
2014-Oct-24 09:33N 25°60' W 079°53'1110.8
2014-Oct-24 08:33N 25°54' W 079°43'9 0.4
2014-Oct-23 08:16N 25°47' W 079°36'6 8.4
2014-Oct-23 07:33N 25°50' W 079°42'8 7.6
2014-Oct-23 06:33N 25°54' W 079°49'7 6.7
2014-Oct-23 05:33N 25°59' W 079°55'7 6.7
2014-Oct-23 04:33N 26°03' W 080°01'5 5.4
2014-Oct-23 03:33N 26°04' W 080°07'1 0.9
2014-Oct-23 02:33N 26°04' W 080°08'0 0.0
2014-Oct-23 01:33N 26°04' W 080°08'0 0.0
2014-Oct-23 00:33N 26°04' W 080°08'0 0.0
2014-Oct-22 23:33N 26°04' W 080°08'0 0.1
2014-Oct-22 22:33N 26°04' W 080°08'2 2.5
2014-Oct-22 21:33N 26°05' W 080°05'6 6.1
2014-Oct-22 20:33N 26°04' W 079°59'1111.0
2014-Oct-22 19:33N 25°59' W 079°48'1111.1
2014-Oct-22 18:33N 25°56' W 079°36'  

Dump ship's entire track history